sensor_id;sensor_type;location;lat;lon;timestamp;P1;durP1;ratioP1;P2;durP2;ratioP2
57331;SDS011;43164;50.908;18.092;2022-11-03T13:42:08;8.70;;;3.00;;
57331;SDS011;43164;50.908;18.092;2022-11-03T13:47:40;12.70;;;2.40;;
57331;SDS011;43164;50.908;18.092;2022-11-03T13:50:12;8.90;;;2.40;;
57331;SDS011;43164;50.908;18.092;2022-11-03T13:52:50;9.60;;;2.80;;
57331;SDS011;43164;50.908;18.092;2022-11-03T13:55:20;8.00;;;2.30;;
57331;SDS011;43164;50.908;18.092;2022-11-03T13:57:51;10.00;;;2.30;;
57331;SDS011;43164;50.908;18.092;2022-11-03T14:00:19;7.90;;;2.10;;
57331;SDS011;43164;50.908;18.092;2022-11-03T14:02:49;8.40;;;2.40;;
57331;SDS011;43164;50.908;18.092;2022-11-03T14:05:17;10.30;;;2.50;;
57331;SDS011;43164;50.908;18.092;2022-11-03T14:07:45;10.10;;;2.30;;
57331;SDS011;43164;50.908;18.092;2022-11-03T14:10:13;6.80;;;2.20;;
57331;SDS011;43164;50.908;18.092;2022-11-03T14:12:41;8.90;;;2.10;;
57331;SDS011;43164;50.908;18.092;2022-11-03T14:15:09;9.10;;;2.30;;
57331;SDS011;43164;50.908;18.092;2022-11-03T14:17:37;8.80;;;2.20;;
57331;SDS011;43164;50.908;18.092;2022-11-03T14:20:06;8.00;;;1.80;;
57331;SDS011;43164;50.908;18.092;2022-11-03T14:22:36;7.20;;;1.70;;
57331;SDS011;43164;50.908;18.092;2022-11-03T14:25:04;7.90;;;2.00;;
57331;SDS011;43164;50.908;18.092;2022-11-03T14:27:32;8.40;;;2.20;;
57331;SDS011;43164;50.908;18.092;2022-11-03T14:30:01;6.50;;;1.70;;
57331;SDS011;43164;50.908;18.092;2022-11-03T14:32:29;8.10;;;1.90;;
57331;SDS011;43164;50.908;18.092;2022-11-03T14:34:58;7.80;;;1.90;;
57331;SDS011;43164;50.908;18.092;2022-11-03T14:37:27;8.80;;;2.10;;
57331;SDS011;43164;50.908;18.092;2022-11-03T14:39:56;9.70;;;1.90;;
57331;SDS011;43164;50.908;18.092;2022-11-03T14:46:29;10.70;;;2.00;;
57331;SDS011;43164;50.908;18.092;2022-11-03T14:49:04;6.70;;;2.10;;
57331;SDS011;43164;50.908;18.092;2022-11-03T14:51:37;7.00;;;1.80;;
57331;SDS011;43164;50.908;18.092;2022-11-03T14:54:23;10.50;;;2.30;;
57331;SDS011;43164;50.908;18.092;2022-11-03T14:56:52;7.90;;;2.10;;
57331;SDS011;43164;50.908;18.092;2022-11-03T15:06:31;10.00;;;2.20;;
57331;SDS011;43164;50.908;18.092;2022-11-03T15:09:08;7.20;;;2.10;;
57331;SDS011;43164;50.908;18.092;2022-11-03T15:11:39;8.30;;;1.80;;
57331;SDS011;43164;50.908;18.092;2022-11-03T15:14:17;11.10;;;2.50;;
57331;SDS011;43164;50.908;18.092;2022-11-03T15:16:46;9.90;;;2.40;;
57331;SDS011;43164;50.908;18.092;2022-11-03T15:19:14;11.30;;;2.60;;
57331;SDS011;43164;50.908;18.092;2022-11-03T15:21:42;11.70;;;2.90;;
57331;SDS011;43164;50.908;18.092;2022-11-03T15:24:17;11.00;;;3.30;;
57331;SDS011;43164;50.908;18.092;2022-11-03T15:27:03;10.20;;;3.20;;
57331;SDS011;43164;50.908;18.092;2022-11-03T15:32:45;13.20;;;3.00;;
57331;SDS011;43164;50.908;18.092;2022-11-03T15:35:31;9.00;;;3.00;;
57331;SDS011;43164;50.908;18.092;2022-11-03T15:46:06;8.60;;;3.20;;
57331;SDS011;43164;50.908;18.092;2022-11-03T16:08:29;14.90;;;4.40;;
57331;SDS011;43164;50.908;18.092;2022-11-03T16:11:06;13.00;;;4.60;;
57331;SDS011;43164;50.908;18.092;2022-11-03T16:13:36;13.40;;;4.60;;
57331;SDS011;43164;50.908;18.092;2022-11-03T16:16:05;14.60;;;4.80;;
57331;SDS011;43164;50.908;18.092;2022-11-03T16:18:41;14.80;;;4.90;;
57331;SDS011;43164;50.908;18.092;2022-11-03T16:21:10;14.80;;;5.10;;
57331;SDS011;43164;50.908;18.092;2022-11-03T16:23:44;13.60;;;4.80;;
57331;SDS011;43164;50.908;18.092;2022-11-03T16:26:12;15.60;;;5.30;;
57331;SDS011;43164;50.908;18.092;2022-11-03T16:28:46;14.00;;;5.20;;
57331;SDS011;43164;50.908;18.092;2022-11-03T16:31:15;15.60;;;5.10;;
57331;SDS011;43164;50.908;18.092;2022-11-03T16:33:44;12.10;;;5.00;;
57331;SDS011;43164;50.908;18.092;2022-11-03T16:36:12;13.20;;;4.50;;
57331;SDS011;43164;50.908;18.092;2022-11-03T16:38:49;15.20;;;4.80;;
57331;SDS011;43164;50.908;18.092;2022-11-03T16:41:17;13.70;;;5.10;;
57331;SDS011;43164;50.908;18.092;2022-11-03T16:43:53;12.10;;;5.60;;
57331;SDS011;43164;50.908;18.092;2022-11-03T16:46:21;13.30;;;5.40;;
57331;SDS011;43164;50.908;18.092;2022-11-03T16:51:24;13.90;;;4.90;;
57331;SDS011;43164;50.908;18.092;2022-11-03T16:53:58;12.70;;;5.20;;
57331;SDS011;43164;50.908;18.092;2022-11-03T16:56:26;16.10;;;5.20;;
57331;SDS011;43164;50.908;18.092;2022-11-03T16:58:55;18.70;;;6.30;;
57331;SDS011;43164;50.908;18.092;2022-11-03T17:01:23;14.80;;;5.60;;
57331;SDS011;43164;50.908;18.092;2022-11-03T17:03:57;17.80;;;5.90;;
57331;SDS011;43164;50.908;18.092;2022-11-03T17:06:26;19.20;;;6.40;;
57331;SDS011;43164;50.908;18.092;2022-11-03T17:09:01;15.20;;;6.00;;
57331;SDS011;43164;50.908;18.092;2022-11-03T17:11:33;17.60;;;5.90;;
57331;SDS011;43164;50.908;18.092;2022-11-03T17:14:08;17.90;;;5.70;;
57331;SDS011;43164;50.908;18.092;2022-11-03T17:19:17;17.10;;;5.90;;
57331;SDS011;43164;50.908;18.092;2022-11-03T17:21:48;18.50;;;6.20;;
57331;SDS011;43164;50.908;18.092;2022-11-03T17:24:24;18.10;;;6.80;;
57331;SDS011;43164;50.908;18.092;2022-11-03T17:26:59;19.50;;;6.70;;
57331;SDS011;43164;50.908;18.092;2022-11-03T17:33:04;19.10;;;6.20;;
57331;SDS011;43164;50.908;18.092;2022-11-03T17:35:42;16.80;;;6.10;;
57331;SDS011;43164;50.908;18.092;2022-11-03T17:38:20;21.50;;;6.50;;
57331;SDS011;43164;50.908;18.092;2022-11-03T17:40:58;17.20;;;6.10;;
57331;SDS011;43164;50.908;18.092;2022-11-03T17:43:33;18.80;;;6.80;;
57331;SDS011;43164;50.908;18.092;2022-11-03T17:46:08;22.90;;;7.70;;
57331;SDS011;43164;50.908;18.092;2022-11-03T17:48:43;23.70;;;7.10;;
57331;SDS011;43164;50.908;18.092;2022-11-03T17:51:14;19.90;;;7.20;;
57331;SDS011;43164;50.908;18.092;2022-11-03T17:53:50;19.70;;;6.90;;
57331;SDS011;43164;50.908;18.092;2022-11-03T17:56:20;22.70;;;6.70;;
57331;SDS011;43164;50.908;18.092;2022-11-03T17:58:54;25.90;;;7.90;;
57331;SDS011;43164;50.908;18.092;2022-11-03T18:01:24;17.40;;;7.20;;
57331;SDS011;43164;50.908;18.092;2022-11-03T18:04:10;19.20;;;6.50;;
57331;SDS011;43164;50.908;18.092;2022-11-03T18:06:43;17.90;;;6.60;;
57331;SDS011;43164;50.908;18.092;2022-11-03T18:09:12;17.30;;;7.00;;
57331;SDS011;43164;50.908;18.092;2022-11-03T18:11:41;18.10;;;6.30;;
57331;SDS011;43164;50.908;18.092;2022-11-03T18:14:31;17.40;;;6.70;;
57331;SDS011;43164;50.908;18.092;2022-11-03T18:16:59;17.20;;;6.40;;
57331;SDS011;43164;50.908;18.092;2022-11-03T18:19:29;17.30;;;7.10;;
57331;SDS011;43164;50.908;18.092;2022-11-03T18:21:58;20.00;;;6.50;;
57331;SDS011;43164;50.908;18.092;2022-11-03T18:24:32;17.30;;;6.30;;
57331;SDS011;43164;50.908;18.092;2022-11-03T18:27:01;17.80;;;6.60;;
57331;SDS011;43164;50.908;18.092;2022-11-03T18:29:37;19.80;;;6.90;;
57331;SDS011;43164;50.908;18.092;2022-11-03T18:32:07;15.50;;;6.40;;
57331;SDS011;43164;50.908;18.092;2022-11-03T18:34:48;15.80;;;6.70;;
57331;SDS011;43164;50.908;18.092;2022-11-03T18:37:17;17.50;;;6.70;;
57331;SDS011;43164;50.908;18.092;2022-11-03T18:39:47;15.50;;;6.00;;
57331;SDS011;43164;50.908;18.092;2022-11-03T18:42:16;16.70;;;7.00;;
57331;SDS011;43164;50.908;18.092;2022-11-03T18:44:45;20.80;;;6.40;;
57331;SDS011;43164;50.908;18.092;2022-11-03T18:47:15;20.50;;;6.70;;
57331;SDS011;43164;50.908;18.092;2022-11-03T18:49:43;16.40;;;6.60;;
57331;SDS011;43164;50.908;18.092;2022-11-03T18:52:14;18.20;;;7.00;;
57331;SDS011;43164;50.908;18.092;2022-11-03T18:54:44;19.60;;;7.10;;
57331;SDS011;43164;50.908;18.092;2022-11-03T18:57:18;17.10;;;6.80;;
57331;SDS011;43164;50.908;18.092;2022-11-03T18:59:52;17.60;;;7.00;;
57331;SDS011;43164;50.908;18.092;2022-11-03T19:02:21;18.60;;;7.30;;
57331;SDS011;43164;50.908;18.092;2022-11-03T19:04:52;21.40;;;7.00;;
57331;SDS011;43164;50.908;18.092;2022-11-03T19:07:22;20.80;;;7.70;;
57331;SDS011;43164;50.908;18.092;2022-11-03T19:09:55;22.20;;;8.80;;
57331;SDS011;43164;50.908;18.092;2022-11-03T19:12:24;21.00;;;7.70;;
57331;SDS011;43164;50.908;18.092;2022-11-03T19:14:53;19.50;;;7.90;;
57331;SDS011;43164;50.908;18.092;2022-11-03T19:20:23;20.30;;;8.10;;
57331;SDS011;43164;50.908;18.092;2022-11-03T19:22:54;20.00;;;8.10;;
57331;SDS011;43164;50.908;18.092;2022-11-03T19:25:31;27.10;;;8.80;;
57331;SDS011;43164;50.908;18.092;2022-11-03T19:28:05;17.90;;;7.50;;
57331;SDS011;43164;50.908;18.092;2022-11-03T19:33:27;28.20;;;9.30;;
57331;SDS011;43164;50.908;18.092;2022-11-03T19:35:59;20.30;;;8.80;;
57331;SDS011;43164;50.908;18.092;2022-11-03T19:38:34;18.30;;;8.60;;
57331;SDS011;43164;50.908;18.092;2022-11-03T19:41:04;21.60;;;8.70;;
57331;SDS011;43164;50.908;18.092;2022-11-03T19:47:16;24.50;;;8.60;;
57331;SDS011;43164;50.908;18.092;2022-11-03T19:53:15;23.50;;;8.70;;
57331;SDS011;43164;50.908;18.092;2022-11-03T20:00:13;20.70;;;8.80;;
57331;SDS011;43164;50.908;18.092;2022-11-03T20:02:46;21.60;;;9.00;;
57331;SDS011;43164;50.908;18.092;2022-11-03T20:08:21;25.20;;;9.00;;
57331;SDS011;43164;50.908;18.092;2022-11-03T20:13:58;24.10;;;9.50;;
57331;SDS011;43164;50.908;18.092;2022-11-03T20:16:28;22.50;;;9.90;;
57331;SDS011;43164;50.908;18.092;2022-11-03T20:19:02;23.50;;;8.80;;
57331;SDS011;43164;50.908;18.092;2022-11-03T20:21:32;23.30;;;8.80;;
57331;SDS011;43164;50.908;18.092;2022-11-03T20:24:10;18.50;;;8.40;;
57331;SDS011;43164;50.908;18.092;2022-11-03T20:26:46;21.40;;;8.70;;
57331;SDS011;43164;50.908;18.092;2022-11-03T20:29:20;23.10;;;8.80;;
57331;SDS011;43164;50.908;18.092;2022-11-03T20:31:48;21.50;;;8.60;;
57331;SDS011;43164;50.908;18.092;2022-11-03T20:34:22;21.50;;;8.60;;
57331;SDS011;43164;50.908;18.092;2022-11-03T20:36:51;19.60;;;8.90;;
57331;SDS011;43164;50.908;18.092;2022-11-03T20:39:27;22.30;;;8.90;;
57331;SDS011;43164;50.908;18.092;2022-11-03T20:41:54;20.80;;;8.50;;
57331;SDS011;43164;50.908;18.092;2022-11-03T20:44:28;20.50;;;8.80;;
57331;SDS011;43164;50.908;18.092;2022-11-03T20:46:57;20.60;;;9.30;;
57331;SDS011;43164;50.908;18.092;2022-11-03T20:49:30;20.40;;;8.70;;
57331;SDS011;43164;50.908;18.092;2022-11-03T20:51:58;22.40;;;8.50;;
57331;SDS011;43164;50.908;18.092;2022-11-03T20:54:31;22.40;;;9.50;;
57331;SDS011;43164;50.908;18.092;2022-11-03T20:57:00;22.70;;;9.20;;
57331;SDS011;43164;50.908;18.092;2022-11-03T20:59:29;19.90;;;9.20;;
57331;SDS011;43164;50.908;18.092;2022-11-03T21:01:58;22.00;;;8.70;;
57331;SDS011;43164;50.908;18.092;2022-11-03T21:07:01;23.10;;;9.00;;
57331;SDS011;43164;50.908;18.092;2022-11-03T21:09:30;21.90;;;9.00;;
57331;SDS011;43164;50.908;18.092;2022-11-03T21:11:58;20.90;;;8.40;;
57331;SDS011;43164;50.908;18.092;2022-11-03T21:14:32;23.00;;;8.30;;
57331;SDS011;43164;50.908;18.092;2022-11-03T21:17:00;19.80;;;8.70;;
57331;SDS011;43164;50.908;18.092;2022-11-03T21:20:09;20.50;;;8.30;;
57331;SDS011;43164;50.908;18.092;2022-11-03T21:22:47;20.10;;;8.60;;
57331;SDS011;43164;50.908;18.092;2022-11-03T21:25:17;22.00;;;8.70;;
57331;SDS011;43164;50.908;18.092;2022-11-03T21:27:49;23.70;;;9.20;;
57331;SDS011;43164;50.908;18.092;2022-11-03T21:30:18;21.40;;;8.90;;
57331;SDS011;43164;50.908;18.092;2022-11-03T21:32:54;20.60;;;8.90;;
57331;SDS011;43164;50.908;18.092;2022-11-03T21:35:39;21.30;;;8.40;;
57331;SDS011;43164;50.908;18.092;2022-11-03T21:38:09;20.70;;;8.20;;
57331;SDS011;43164;50.908;18.092;2022-11-03T21:40:50;19.70;;;7.70;;
57331;SDS011;43164;50.908;18.092;2022-11-03T21:43:43;20.00;;;7.70;;
57331;SDS011;43164;50.908;18.092;2022-11-03T21:46:30;18.70;;;8.70;;
57331;SDS011;43164;50.908;18.092;2022-11-03T21:48:59;20.00;;;8.40;;
57331;SDS011;43164;50.908;18.092;2022-11-03T21:51:54;19.60;;;8.20;;
57331;SDS011;43164;50.908;18.092;2022-11-03T21:54:26;22.20;;;7.40;;
57331;SDS011;43164;50.908;18.092;2022-11-03T21:56:55;18.60;;;7.90;;
57331;SDS011;43164;50.908;18.092;2022-11-03T21:59:23;15.70;;;7.60;;
57331;SDS011;43164;50.908;18.092;2022-11-03T22:01:51;20.10;;;7.80;;
57331;SDS011;43164;50.908;18.092;2022-11-03T22:04:29;16.20;;;7.30;;
57331;SDS011;43164;50.908;18.092;2022-11-03T22:06:58;21.60;;;7.80;;
57331;SDS011;43164;50.908;18.092;2022-11-03T22:09:27;18.20;;;7.00;;
57331;SDS011;43164;50.908;18.092;2022-11-03T22:11:56;17.20;;;7.50;;
57331;SDS011;43164;50.908;18.092;2022-11-03T22:14:35;20.40;;;8.40;;
57331;SDS011;43164;50.908;18.092;2022-11-03T22:17:22;18.80;;;8.20;;
57331;SDS011;43164;50.908;18.092;2022-11-03T22:20:00;15.90;;;7.60;;
57331;SDS011;43164;50.908;18.092;2022-11-03T22:23:05;21.10;;;8.00;;
57331;SDS011;43164;50.908;18.092;2022-11-03T22:25:53;19.40;;;8.00;;
57331;SDS011;43164;50.908;18.092;2022-11-03T22:28:46;20.70;;;7.70;;
57331;SDS011;43164;50.908;18.092;2022-11-03T22:31:34;19.90;;;7.80;;
57331;SDS011;43164;50.908;18.092;2022-11-03T22:34:08;20.50;;;8.20;;
57331;SDS011;43164;50.908;18.092;2022-11-03T22:36:55;19.80;;;7.20;;
57331;SDS011;43164;50.908;18.092;2022-11-03T22:39:22;19.30;;;7.80;;
57331;SDS011;43164;50.908;18.092;2022-11-03T22:42:10;18.60;;;8.50;;
57331;SDS011;43164;50.908;18.092;2022-11-03T22:44:58;21.40;;;9.80;;
57331;SDS011;43164;50.908;18.092;2022-11-03T22:47:45;16.90;;;8.40;;
57331;SDS011;43164;50.908;18.092;2022-11-03T22:50:13;17.90;;;8.30;;
57331;SDS011;43164;50.908;18.092;2022-11-03T22:52:42;21.80;;;8.20;;
57331;SDS011;43164;50.908;18.092;2022-11-03T22:55:10;17.00;;;7.40;;
57331;SDS011;43164;50.908;18.092;2022-11-03T22:57:38;16.50;;;7.40;;
57331;SDS011;43164;50.908;18.092;2022-11-03T23:00:06;18.00;;;7.40;;
57331;SDS011;43164;50.908;18.092;2022-11-03T23:02:35;19.50;;;8.40;;
57331;SDS011;43164;50.908;18.092;2022-11-03T23:05:03;16.00;;;7.30;;
57331;SDS011;43164;50.908;18.092;2022-11-03T23:07:33;19.10;;;8.20;;
57331;SDS011;43164;50.908;18.092;2022-11-03T23:10:01;18.40;;;8.40;;
57331;SDS011;43164;50.908;18.092;2022-11-03T23:12:30;21.20;;;8.20;;
57331;SDS011;43164;50.908;18.092;2022-11-03T23:14:58;18.50;;;8.00;;
57331;SDS011;43164;50.908;18.092;2022-11-03T23:17:45;26.10;;;8.70;;
57331;SDS011;43164;50.908;18.092;2022-11-03T23:20:32;19.90;;;8.10;;
57331;SDS011;43164;50.908;18.092;2022-11-03T23:23:19;19.60;;;7.80;;
57331;SDS011;43164;50.908;18.092;2022-11-03T23:26:07;19.40;;;7.90;;
57331;SDS011;43164;50.908;18.092;2022-11-03T23:28:35;21.20;;;8.60;;
57331;SDS011;43164;50.908;18.092;2022-11-03T23:31:03;18.30;;;8.40;;
57331;SDS011;43164;50.908;18.092;2022-11-03T23:33:31;16.60;;;7.60;;
57331;SDS011;43164;50.908;18.092;2022-11-03T23:36:05;21.20;;;8.60;;
57331;SDS011;43164;50.908;18.092;2022-11-03T23:38:34;19.80;;;8.80;;
57331;SDS011;43164;50.908;18.092;2022-11-03T23:41:05;20.20;;;8.20;;
57331;SDS011;43164;50.908;18.092;2022-11-03T23:43:34;19.50;;;8.10;;
57331;SDS011;43164;50.908;18.092;2022-11-03T23:46:02;19.20;;;8.50;;
57331;SDS011;43164;50.908;18.092;2022-11-03T23:48:50;22.30;;;8.80;;
57331;SDS011;43164;50.908;18.092;2022-11-03T23:51:22;18.30;;;8.30;;
57331;SDS011;43164;50.908;18.092;2022-11-03T23:53:51;19.20;;;7.90;;
57331;SDS011;43164;50.908;18.092;2022-11-03T23:56:21;16.50;;;7.80;;
57331;SDS011;43164;50.908;18.092;2022-11-03T23:59:09;16.60;;;7.80;;
